Terminal Aerodrome Forecast
Issued by NWS

Home | Current Version | Previous Version | Text Only | Print | Product List | Glossary On
Versions: 1 2 3 4 5 6 7 8 9 10 11 12 13
000
FTUS45 KREV 311700
TAFMMH
TAF
KMMH 311723Z 3118/0118 14008KT P6SM FEW120 SCT180
     FM311900 19012G22KT P6SM SCT080 SCT120 BKN160
     FM312200 20014G26KT P6SM SCT035 BKN080
     FM010400 28012G20KT 5SM -RASN SCT020 OVC035
     FM010800 31009KT 2SM -SN OVC008=

USA.gov is the U.S. government's official web portal to all federal, state and local government web resources and services.